createdAt,value
2022-08-20T00:02:14.390Z,15.00
2022-08-20T00:04:45.251Z,15.35
2022-08-20T00:07:14.455Z,13.88
2022-08-20T00:09:43.039Z,13.73
2022-08-20T00:12:13.123Z,12.93
2022-08-20T00:14:40.821Z,12.95
2022-08-20T00:17:08.628Z,12.20
2022-08-20T00:19:36.375Z,14.13
2022-08-20T00:22:07.064Z,13.05
2022-08-20T00:24:37.228Z,12.90
2022-08-20T00:27:04.772Z,13.73
2022-08-20T00:29:32.357Z,13.50
2022-08-20T00:31:59.860Z,13.43
2022-08-20T00:34:28.340Z,14.10
2022-08-20T00:36:55.985Z,15.48
2022-08-20T00:39:23.523Z,15.27
2022-08-20T00:41:52.129Z,14.55
2022-08-20T00:44:22.867Z,15.32
2022-08-20T00:46:52.164Z,14.60
2022-08-20T00:49:25.016Z,15.07
2022-08-20T00:52:15.787Z,16.02
2022-08-20T00:54:57.257Z,15.38
2022-08-20T00:57:58.910Z,14.60
2022-08-20T01:00:29.848Z,14.73
2022-08-20T01:02:58.289Z,13.70
2022-08-20T01:05:27.873Z,14.20
2022-08-20T01:07:58.572Z,13.48
2022-08-20T01:10:35.048Z,12.98
2022-08-20T01:13:11.588Z,13.25
2022-08-20T01:15:43.432Z,14.18
2022-08-20T01:18:19.617Z,13.43
2022-08-20T01:20:54.519Z,12.10
2022-08-20T01:23:40.658Z,11.48
2022-08-20T01:26:12.662Z,12.43
2022-08-20T01:28:44.850Z,11.50
2022-08-20T01:31:20.043Z,11.90
2022-08-20T01:33:53.040Z,10.70
2022-08-20T01:36:30.457Z,11.38
2022-08-20T01:39:02.270Z,10.90
2022-08-20T01:41:47.439Z,10.82
2022-08-20T01:44:18.306Z,9.82
2022-08-20T01:46:48.542Z,10.98
2022-08-20T01:49:30.115Z,10.10
2022-08-20T01:52:01.146Z,9.68
2022-08-20T01:54:28.820Z,10.05
2022-08-20T01:57:05.652Z,9.85
2022-08-20T01:59:33.273Z,9.57
2022-08-20T02:02:02.627Z,9.18
2022-08-20T02:04:31.349Z,9.43
2022-08-20T02:07:01.507Z,8.40
2022-08-20T02:09:32.169Z,8.70
2022-08-20T02:12:00.070Z,7.18
2022-08-20T02:14:28.105Z,7.47
2022-08-20T02:16:58.685Z,8.63
2022-08-20T02:19:32.638Z,7.55
2022-08-20T02:22:03.768Z,7.10
2022-08-20T02:24:31.315Z,7.13
2022-08-20T02:26:58.996Z,7.43
2022-08-20T02:29:37.989Z,8.35
2022-08-20T02:32:25.066Z,6.97
2022-08-20T02:34:55.317Z,7.03
2022-08-20T02:37:22.831Z,7.10
2022-08-20T02:39:50.484Z,7.18
2022-08-20T02:42:18.251Z,6.97
2022-08-20T02:44:45.747Z,6.72
2022-08-20T02:47:13.408Z,7.10
2022-08-20T02:49:40.961Z,7.13
2022-08-20T02:52:08.604Z,8.75
2022-08-20T02:54:36.326Z,9.65
2022-08-20T02:57:04.744Z,10.70
2022-08-20T02:59:32.250Z,10.43
2022-08-20T03:02:00.882Z,11.55
2022-08-20T03:04:31.948Z,13.77
2022-08-20T03:06:59.946Z,14.32
2022-08-20T03:09:27.553Z,16.35
2022-08-20T03:12:01.002Z,20.75
2022-08-20T03:14:29.082Z,21.85
2022-08-20T03:16:59.435Z,22.67
2022-08-20T03:19:27.614Z,21.00
2022-08-20T03:21:55.134Z,22.42
2022-08-20T03:24:24.950Z,21.98
2022-08-20T03:26:52.487Z,23.73
2022-08-20T03:29:20.046Z,21.90
2022-08-20T03:31:47.842Z,23.95
2022-08-20T03:34:15.447Z,22.08
2022-08-20T03:36:45.878Z,22.33
2022-08-20T03:39:13.579Z,19.58
2022-08-20T03:41:41.110Z,18.98
2022-08-20T03:44:08.706Z,18.20
2022-08-20T03:46:36.201Z,17.77
2022-08-20T03:49:03.990Z,15.07
2022-08-20T03:51:43.456Z,14.80
2022-08-20T03:54:22.882Z,15.30
2022-08-20T03:56:50.450Z,13.52
2022-08-20T03:59:17.940Z,12.40
2022-08-20T04:01:46.691Z,11.68
2022-08-20T04:04:15.391Z,11.77
2022-08-20T04:06:43.389Z,12.27
2022-08-20T04:09:12.325Z,12.98
2022-08-20T04:11:41.466Z,13.95
2022-08-20T04:14:11.180Z,14.02
2022-08-20T04:16:40.577Z,13.95
2022-08-20T04:19:08.714Z,14.60
2022-08-20T04:21:39.680Z,13.32
2022-08-20T04:24:07.425Z,13.45
2022-08-20T04:26:36.487Z,12.75
2022-08-20T04:29:04.626Z,12.13
2022-08-20T04:31:35.299Z,12.32
2022-08-20T04:34:08.001Z,10.27
2022-08-20T04:36:35.997Z,11.82
2022-08-20T04:39:04.025Z,11.30
2022-08-20T04:41:31.527Z,10.18
2022-08-20T04:43:59.049Z,10.32
2022-08-20T04:46:29.376Z,10.23
2022-08-20T04:48:57.789Z,9.75
2022-08-20T04:51:25.303Z,9.82
2022-08-20T04:53:56.496Z,9.40
2022-08-20T04:56:29.828Z,9.55
2022-08-20T04:59:00.664Z,8.65
2022-08-20T05:01:29.403Z,8.43
2022-08-20T05:03:58.286Z,9.00
2022-08-20T05:06:29.687Z,8.30
2022-08-20T05:08:59.713Z,8.45
2022-08-20T05:11:35.226Z,9.07
2022-08-20T05:14:07.781Z,8.73
2022-08-20T05:16:40.725Z,9.05
2022-08-20T05:19:11.368Z,8.77
2022-08-20T05:21:39.868Z,9.00
2022-08-20T05:24:10.219Z,8.25
2022-08-20T05:26:37.861Z,8.68
2022-08-20T05:29:07.004Z,7.90
2022-08-20T05:31:35.363Z,8.27
2022-08-20T05:34:11.091Z,8.15
2022-08-20T05:36:53.114Z,7.85
2022-08-20T05:39:23.590Z,8.20
2022-08-20T05:41:51.554Z,9.00
2022-08-20T05:44:19.930Z,7.80
2022-08-20T05:46:48.004Z,7.28
2022-08-20T05:49:22.631Z,7.32
2022-08-20T05:51:51.516Z,8.55
2022-08-20T05:54:19.445Z,8.10
2022-08-20T05:56:47.090Z,8.10
2022-08-20T05:59:14.669Z,8.25
2022-08-20T06:01:43.023Z,7.13
2022-08-20T06:04:31.918Z,7.22
2022-08-20T06:07:05.965Z,7.05
2022-08-20T06:09:33.749Z,6.85
2022-08-20T06:12:06.715Z,7.40
2022-08-20T06:14:35.297Z,6.35
2022-08-20T06:17:13.496Z,6.70
2022-08-20T06:19:44.745Z,6.70
2022-08-20T06:22:21.332Z,6.30
2022-08-20T06:24:51.317Z,6.35
2022-08-20T06:27:21.824Z,5.50
2022-08-20T06:29:50.896Z,4.68
2022-08-20T06:32:32.514Z,5.60
2022-08-20T06:35:06.243Z,5.32
2022-08-20T06:37:36.908Z,4.53
2022-08-20T06:40:12.705Z,4.93
2022-08-20T06:42:47.898Z,5.55
2022-08-20T06:45:19.874Z,5.40
2022-08-20T06:47:48.255Z,4.47
2022-08-20T06:50:19.687Z,4.07
2022-08-20T06:52:51.992Z,4.32
2022-08-20T06:55:24.023Z,3.88
2022-08-20T06:58:03.679Z,3.60
2022-08-20T07:00:33.059Z,4.07
2022-08-20T07:03:05.016Z,4.00
2022-08-20T07:05:35.910Z,3.97
2022-08-20T07:08:04.732Z,4.00
2022-08-20T07:10:32.639Z,3.90
2022-08-20T07:13:00.903Z,3.78
2022-08-20T07:15:29.168Z,3.85
2022-08-20T07:18:01.498Z,4.03
2022-08-20T07:20:31.766Z,4.35
2022-08-20T07:23:00.746Z,4.15
2022-08-20T07:25:29.128Z,4.25
2022-08-20T07:28:09.192Z,4.00
2022-08-20T07:30:55.808Z,3.42
2022-08-20T07:33:26.313Z,4.15
2022-08-20T07:36:00.423Z,3.72
2022-08-20T07:38:30.310Z,4.57
2022-08-20T07:41:05.106Z,3.88
2022-08-20T07:43:33.276Z,3.55
2022-08-20T07:46:03.200Z,3.90
2022-08-20T07:48:32.155Z,4.05
2022-08-20T07:51:03.843Z,3.25
2022-08-20T07:53:35.922Z,3.72
2022-08-20T07:56:13.530Z,3.53
2022-08-20T07:58:50.442Z,4.43
2022-08-20T08:03:50.170Z,4.07
2022-08-20T08:06:29.554Z,7.43
2022-08-20T08:09:04.862Z,4.43
2022-08-20T08:11:34.997Z,3.22
2022-08-20T08:14:06.406Z,3.75
2022-08-20T08:16:35.308Z,3.92
2022-08-20T08:19:07.810Z,3.78
2022-08-20T08:21:35.751Z,3.90
2022-08-20T08:24:05.799Z,4.07
2022-08-20T08:26:35.790Z,3.85
2022-08-20T08:29:05.369Z,4.00
2022-08-20T08:31:35.307Z,3.53
2022-08-20T08:34:02.895Z,4.47
2022-08-20T08:36:30.867Z,4.13
2022-08-20T08:38:58.431Z,4.20
2022-08-20T08:41:36.590Z,3.88
2022-08-20T08:44:08.366Z,4.30
2022-08-20T08:46:41.233Z,4.45
2022-08-20T08:49:16.610Z,4.63
2022-08-20T08:51:56.176Z,4.95
2022-08-20T08:54:27.616Z,4.65
2022-08-20T08:56:59.707Z,5.03
2022-08-20T08:59:52.235Z,5.30
2022-08-20T09:02:23.064Z,5.32
2022-08-20T09:04:51.758Z,5.75
2022-08-20T09:07:20.503Z,6.45
2022-08-20T09:09:48.197Z,5.85
2022-08-20T09:12:22.340Z,5.88
2022-08-20T09:14:51.370Z,6.18
2022-08-20T09:17:22.126Z,6.65
2022-08-20T09:19:52.284Z,7.22
2022-08-20T09:22:22.994Z,7.28
2022-08-20T09:24:51.151Z,7.68
2022-08-20T09:27:19.170Z,7.78
2022-08-20T09:29:49.259Z,8.32
2022-08-20T09:32:20.916Z,8.18
2022-08-20T09:34:56.393Z,8.68
2022-08-20T09:37:26.403Z,8.30
2022-08-20T09:39:54.246Z,8.43
2022-08-20T09:42:25.319Z,9.27
2022-08-20T09:44:53.345Z,8.18
2022-08-20T09:47:21.029Z,8.70
2022-08-20T09:49:48.671Z,8.88
2022-08-20T09:52:28.125Z,9.27
2022-08-20T09:55:16.046Z,8.15
2022-08-20T09:57:44.497Z,9.10
2022-08-20T10:00:12.770Z,9.60
2022-08-20T10:02:41.226Z,10.38
2022-08-20T10:05:12.520Z,10.23
2022-08-20T10:07:43.299Z,10.60
2022-08-20T10:10:14.203Z,11.80
2022-08-20T10:12:42.251Z,10.80
2022-08-20T10:15:10.904Z,10.73
2022-08-20T10:17:42.989Z,10.50
2022-08-20T10:20:13.506Z,9.65
2022-08-20T10:22:41.494Z,9.57
2022-08-20T10:25:09.798Z,8.27
2022-08-20T10:27:38.333Z,9.13
2022-08-20T10:30:09.626Z,9.25
2022-08-20T10:32:37.333Z,11.68
2022-08-20T10:35:05.262Z,8.95
2022-08-20T10:37:34.802Z,8.45
2022-08-20T10:40:02.681Z,8.00
2022-08-20T10:42:30.696Z,8.68
2022-08-20T10:44:58.227Z,7.68
2022-08-20T10:47:28.978Z,7.50
2022-08-20T10:49:58.902Z,7.47
2022-08-20T10:52:27.179Z,7.38
2022-08-20T10:54:55.554Z,6.90
2022-08-20T10:57:26.291Z,7.40
2022-08-20T10:59:56.645Z,6.78
2022-08-20T11:02:25.167Z,7.43
2022-08-20T11:04:53.395Z,6.70
2022-08-20T11:08:00.233Z,6.93
2022-08-20T11:10:14.038Z,6.38
2022-08-20T11:12:44.853Z,5.93
2022-08-20T11:15:15.645Z,6.15
2022-08-20T11:17:44.511Z,5.97
2022-08-20T11:20:14.226Z,6.13
2022-08-20T11:22:42.006Z,5.90
2022-08-20T11:25:09.986Z,5.70
2022-08-20T11:27:42.575Z,6.18
2022-08-20T11:30:14.081Z,6.50
2022-08-20T11:32:42.119Z,5.40
2022-08-20T11:35:38.852Z,4.70
2022-08-20T11:37:59.262Z,5.28
2022-08-20T11:40:27.954Z,4.70
2022-08-20T11:43:15.557Z,4.57
2022-08-20T11:45:49.816Z,5.10
2022-08-20T11:48:18.249Z,5.78
2022-08-20T11:50:46.625Z,5.15
2022-08-20T11:53:14.855Z,9.68
2022-08-20T11:55:43.630Z,7.13
2022-08-20T11:58:11.319Z,8.45
2022-08-20T12:00:41.273Z,4.80
2022-08-20T12:03:10.287Z,4.80
2022-08-20T12:05:41.757Z,4.47
2022-08-20T12:08:09.384Z,4.45
2022-08-20T12:10:38.768Z,4.47
2022-08-20T12:13:07.358Z,5.00
2022-08-20T12:15:40.073Z,5.47
2022-08-20T12:18:08.869Z,5.43
2022-08-20T12:20:37.845Z,4.30
2022-08-20T12:23:05.691Z,4.45
2022-08-20T12:25:34.012Z,5.00
2022-08-20T12:28:01.845Z,5.93
2022-08-20T12:30:29.467Z,5.57
2022-08-20T12:32:57.312Z,4.10
2022-08-20T12:35:26.397Z,3.95
2022-08-20T12:37:53.931Z,3.40
2022-08-20T12:40:32.429Z,3.83
2022-08-20T12:43:02.531Z,4.10
2022-08-20T12:45:31.305Z,3.95
2022-08-20T12:48:13.176Z,3.58
2022-08-20T12:50:43.503Z,3.72
2022-08-20T12:53:11.106Z,3.42
2022-08-20T12:55:38.700Z,3.58
2022-08-20T12:58:09.075Z,5.07
2022-08-20T13:00:43.102Z,5.57
2022-08-20T13:03:12.933Z,4.97
2022-08-20T13:05:41.341Z,4.63
2022-08-20T13:08:10.979Z,4.47
2022-08-20T13:10:44.506Z,3.90
2022-08-20T13:13:14.346Z,4.13
2022-08-20T13:15:42.115Z,4.97
2022-08-20T13:18:09.733Z,4.88
2022-08-20T13:20:37.475Z,4.40
2022-08-20T13:23:05.723Z,5.07
2022-08-20T13:25:33.376Z,4.38
2022-08-20T13:28:06.390Z,4.65
2022-08-20T13:30:41.083Z,4.47
2022-08-20T13:33:08.814Z,8.40
2022-08-20T13:35:36.454Z,6.25
2022-08-20T13:38:13.287Z,5.70
2022-08-20T13:45:40.195Z,6.53
2022-08-20T13:48:14.675Z,6.95
2022-08-20T13:50:47.160Z,7.22
2022-08-20T13:53:18.412Z,7.40
2022-08-20T13:55:46.365Z,7.70
2022-08-20T13:58:14.054Z,6.30
2022-08-20T14:00:42.154Z,7.85
2022-08-20T14:03:09.848Z,6.13
2022-08-20T14:05:38.494Z,6.05
2022-08-20T14:08:18.473Z,7.78
2022-08-20T14:10:50.473Z,6.35
2022-08-20T14:13:21.567Z,7.10
2022-08-20T14:15:49.916Z,6.03
2022-08-20T14:18:17.673Z,6.75
2022-08-20T14:20:45.728Z,6.85
2022-08-20T14:23:14.448Z,6.13
2022-08-20T14:25:46.025Z,5.60
2022-08-20T14:28:18.572Z,5.47
2022-08-20T14:30:53.054Z,5.28
2022-08-20T14:33:22.457Z,4.88
2022-08-20T14:35:50.128Z,4.90
2022-08-20T14:38:20.823Z,4.40
2022-08-20T14:40:50.473Z,4.90
2022-08-20T14:43:19.738Z,4.40
2022-08-20T14:45:47.257Z,3.85
2022-08-20T14:48:15.150Z,4.15
2022-08-20T14:50:43.032Z,3.83
2022-08-20T14:53:10.659Z,3.85
2022-08-20T14:55:38.564Z,4.20
2022-08-20T14:58:11.355Z,3.50
2022-08-20T15:00:39.027Z,3.95
2022-08-20T15:03:06.593Z,4.03
2022-08-20T15:05:35.273Z,3.40
2022-08-20T15:08:10.018Z,3.38
2022-08-20T15:10:39.270Z,3.75
2022-08-20T15:13:09.504Z,4.40
2022-08-20T15:15:40.722Z,3.67
2022-08-20T15:18:08.465Z,3.05
2022-08-20T15:20:39.104Z,3.38
2022-08-20T15:23:06.960Z,3.72
2022-08-20T15:25:37.342Z,3.72
2022-08-20T15:28:15.217Z,4.18
2022-08-20T15:30:45.313Z,4.53
2022-08-20T15:33:13.026Z,2.90
2022-08-20T15:35:40.690Z,3.00
2022-08-20T15:38:10.441Z,3.05
2022-08-20T15:40:38.029Z,2.58
2022-08-20T15:43:06.825Z,3.63
2022-08-20T15:45:35.675Z,3.50
2022-08-20T15:48:11.958Z,3.40
2022-08-20T15:50:47.633Z,3.10
2022-08-20T15:53:23.109Z,2.70
2022-08-20T15:56:03.354Z,2.92
2022-08-20T15:58:58.918Z,3.50
2022-08-20T16:01:47.653Z,2.72
2022-08-20T16:04:52.377Z,2.92
2022-08-20T16:07:55.181Z,2.65
2022-08-20T16:10:47.983Z,2.65
2022-08-20T16:13:52.534Z,2.85
2022-08-20T16:16:36.390Z,2.97
2022-08-20T16:19:06.274Z,3.90
2022-08-20T16:21:37.266Z,3.45
2022-08-20T16:24:07.175Z,2.83
2022-08-20T16:27:13.512Z,3.30
2022-08-20T16:29:46.423Z,2.92
2022-08-20T16:32:31.690Z,2.95
2022-08-20T16:35:09.358Z,2.95
2022-08-20T16:37:52.205Z,3.03
2022-08-20T16:40:28.424Z,2.75
2022-08-20T16:42:59.620Z,3.03
2022-08-20T16:45:31.428Z,3.67
2022-08-20T16:48:06.851Z,2.97
2022-08-20T16:50:38.366Z,3.53
2022-08-20T16:53:10.296Z,3.20
2022-08-20T16:55:37.853Z,3.60
2022-08-20T16:58:07.972Z,2.60
2022-08-20T17:00:42.534Z,2.92
2022-08-20T17:03:39.423Z,3.03
2022-08-20T17:06:27.283Z,3.13
2022-08-20T17:08:55.685Z,3.22
2022-08-20T17:11:33.152Z,3.08
2022-08-20T17:14:08.810Z,4.00
2022-08-20T17:16:45.904Z,3.10
2022-08-20T17:19:20.166Z,2.97
2022-08-20T17:21:50.264Z,3.42
2022-08-20T17:24:26.058Z,3.17
2022-08-20T17:27:10.846Z,3.10
2022-08-20T17:29:50.402Z,3.30
2022-08-20T17:32:28.246Z,3.47
2022-08-20T17:34:59.626Z,3.25
2022-08-20T17:37:33.473Z,3.67
2022-08-20T17:40:47.199Z,3.10
2022-08-20T17:43:44.730Z,3.08
2022-08-20T17:46:18.992Z,3.38
2022-08-20T17:48:51.760Z,2.85
2022-08-20T17:51:23.858Z,3.38
2022-08-20T17:54:18.748Z,2.65
2022-08-20T17:56:53.746Z,3.10
2022-08-20T18:00:00.895Z,3.15
2022-08-20T18:02:28.318Z,3.20
2022-08-20T18:04:57.295Z,2.80
2022-08-20T18:07:40.732Z,3.20
2022-08-20T18:10:14.522Z,3.47
2022-08-20T18:12:51.053Z,2.88
2022-08-20T18:15:24.144Z,3.53
2022-08-20T18:18:07.882Z,2.60
2022-08-20T18:21:03.066Z,3.53
2022-08-20T18:23:52.155Z,3.95
2022-08-20T18:26:26.571Z,3.30
2022-08-20T18:29:07.947Z,3.20
2022-08-20T18:31:52.191Z,3.50
2022-08-20T18:34:40.094Z,5.05
2022-08-20T18:37:25.485Z,3.35
2022-08-20T18:39:53.294Z,3.72
2022-08-20T18:42:26.161Z,3.53
2022-08-20T18:44:55.307Z,3.28
2022-08-20T18:47:33.312Z,3.35
2022-08-20T18:50:15.734Z,3.25
2022-08-20T18:52:51.926Z,3.78
2022-08-20T18:55:33.789Z,3.35
2022-08-20T18:58:08.544Z,3.35
2022-08-20T19:00:48.582Z,3.05
2022-08-20T19:03:39.181Z,3.13
2022-08-20T19:06:15.658Z,3.13
2022-08-20T19:09:05.894Z,3.40
2022-08-20T19:11:49.935Z,4.22
2022-08-20T19:14:17.393Z,4.53
2022-08-20T19:16:52.812Z,3.80
2022-08-20T19:19:23.731Z,4.40
2022-08-20T19:21:52.661Z,4.30
2022-08-20T19:24:26.675Z,4.47
2022-08-20T19:26:57.579Z,4.50
2022-08-20T19:29:33.781Z,4.43
2022-08-20T19:32:06.774Z,4.95
2022-08-20T19:34:34.971Z,4.88
2022-08-20T19:37:35.762Z,4.45
2022-08-20T19:40:28.304Z,4.55
2022-08-20T19:42:59.544Z,4.25
2022-08-20T19:45:37.404Z,4.10
2022-08-20T19:48:10.565Z,3.70
2022-08-20T19:50:58.486Z,3.70
2022-08-20T19:53:31.957Z,6.40
2022-08-20T19:56:03.455Z,3.97
2022-08-20T19:58:32.653Z,4.15
2022-08-20T20:01:02.460Z,3.97
2022-08-20T20:03:35.055Z,4.15
2022-08-20T20:06:17.162Z,3.72
2022-08-20T20:09:00.050Z,3.90
2022-08-20T20:11:37.489Z,4.00
2022-08-20T20:14:14.223Z,3.97
2022-08-20T20:16:45.767Z,4.20
2022-08-20T20:19:30.142Z,4.47
2022-08-20T20:22:20.338Z,4.85
2022-08-20T20:25:00.580Z,4.15
2022-08-20T20:27:29.155Z,4.60
2022-08-20T20:30:02.473Z,5.05
2022-08-20T20:32:34.076Z,5.03
2022-08-20T20:35:05.046Z,6.32
2022-08-20T20:37:50.865Z,5.90
2022-08-20T20:40:26.028Z,7.30
2022-08-20T20:42:58.303Z,7.13
2022-08-20T20:45:34.067Z,6.43
2022-08-20T20:48:40.166Z,6.97
2022-08-20T20:51:23.006Z,7.50
2022-08-20T20:53:54.679Z,7.47
2022-08-20T20:56:28.344Z,8.63
2022-08-20T20:58:56.459Z,9.57
2022-08-20T21:01:34.499Z,11.25
2022-08-20T21:04:12.422Z,11.30
2022-08-20T21:06:40.205Z,11.25
2022-08-20T21:09:08.362Z,11.57
2022-08-20T21:11:36.418Z,12.20
2022-08-20T21:14:04.033Z,11.95
2022-08-20T21:16:31.735Z,13.00
2022-08-20T21:18:59.243Z,14.13
2022-08-20T21:21:26.829Z,13.43
2022-08-20T21:23:54.489Z,14.88
2022-08-20T21:26:22.573Z,13.77
2022-08-20T21:28:50.322Z,14.93
2022-08-20T21:31:19.656Z,15.68
2022-08-20T21:33:47.354Z,14.95
2022-08-20T21:36:15.128Z,15.35
2022-08-20T21:38:43.074Z,15.18
2022-08-20T21:41:10.899Z,15.35
2022-08-20T21:43:38.797Z,16.08
2022-08-20T21:46:09.271Z,15.63
2022-08-20T21:48:43.233Z,16.00
2022-08-20T21:51:14.003Z,15.55
2022-08-20T21:53:41.632Z,15.45
2022-08-20T21:56:10.548Z,17.30
2022-08-20T21:58:40.859Z,16.20
2022-08-20T22:01:09.499Z,16.77
2022-08-20T22:03:38.944Z,17.75
2022-08-20T22:06:12.801Z,17.92
2022-08-20T22:08:40.959Z,17.40
2022-08-20T22:11:10.784Z,17.65
2022-08-20T22:13:39.822Z,18.67
2022-08-20T22:16:09.710Z,18.83
2022-08-20T22:18:37.447Z,19.02
2022-08-20T22:21:12.185Z,21.50
2022-08-20T22:23:42.837Z,19.90
2022-08-20T22:26:10.592Z,20.15
2022-08-20T22:28:38.932Z,20.58
2022-08-20T22:31:06.896Z,20.90
2022-08-20T22:33:35.214Z,20.90
2022-08-20T22:36:05.028Z,22.13
2022-08-20T22:38:32.974Z,20.67
2022-08-20T22:41:07.668Z,20.25
2022-08-20T22:43:46.290Z,19.40
2022-08-20T22:46:28.525Z,20.70
2022-08-20T22:48:56.960Z,20.63
2022-08-20T22:51:30.449Z,19.60
2022-08-20T22:53:59.318Z,20.15
2022-08-20T22:56:27.443Z,19.77
2022-08-20T22:58:59.530Z,20.20
2022-08-20T23:01:28.758Z,22.10
2022-08-20T23:04:22.934Z,21.33
2022-08-20T23:06:50.944Z,21.35
2022-08-20T23:09:21.170Z,21.67
2022-08-20T23:11:49.507Z,21.67
2022-08-20T23:14:17.214Z,21.45
2022-08-20T23:16:49.567Z,22.77
2022-08-20T23:19:23.591Z,22.60
2022-08-20T23:21:52.035Z,23.17
2022-08-20T23:24:20.034Z,24.50
2022-08-20T23:26:52.507Z,25.08
2022-08-20T23:29:25.736Z,24.50
2022-08-20T23:31:59.770Z,24.83
2022-08-20T23:34:27.963Z,25.42
2022-08-20T23:36:57.036Z,26.83
2022-08-20T23:39:25.785Z,26.52
2022-08-20T23:41:54.241Z,26.15
2022-08-20T23:44:26.155Z,27.60
2022-08-20T23:47:01.265Z,27.63
2022-08-20T23:49:29.723Z,25.23
2022-08-20T23:52:00.480Z,27.65
2022-08-20T23:54:29.896Z,29.42
2022-08-20T23:56:57.650Z,28.33
2022-08-20T23:59:25.711Z,28.33
